createdAt,value
2017-07-18T00:00:11.115Z,0
2017-07-18T00:01:21.477Z,0
2017-07-18T00:02:31.846Z,0
2017-07-18T00:03:41.926Z,0
2017-07-18T00:04:51.973Z,0
2017-07-18T00:06:02.398Z,0
2017-07-18T00:07:12.820Z,0
2017-07-18T00:08:23.271Z,0
2017-07-18T00:09:33.712Z,0
2017-07-18T00:10:44.096Z,0
2017-07-18T00:11:53.824Z,0
2017-07-18T00:13:03.885Z,0
2017-07-18T00:14:14.239Z,0
2017-07-18T00:15:24.600Z,0
2017-07-18T00:16:34.644Z,0
2017-07-18T00:17:45.061Z,0
2017-07-18T00:18:55.408Z,0
2017-07-18T00:20:05.745Z,0
2017-07-18T00:21:15.780Z,0
2017-07-18T00:22:26.128Z,0
2017-07-18T00:23:36.153Z,0
2017-07-18T00:24:45.899Z,0
2017-07-18T00:25:56.270Z,0
2017-07-18T00:27:06.664Z,0
2017-07-18T00:28:17.029Z,0
2017-07-18T00:29:27.422Z,0
2017-07-18T00:30:37.508Z,0
2017-07-18T00:31:47.850Z,0
2017-07-18T00:32:57.566Z,0
2017-07-18T00:34:07.927Z,0
2017-07-18T00:35:18.333Z,0
2017-07-18T00:36:28.384Z,0
2017-07-18T00:37:38.468Z,0
2017-07-18T00:38:48.818Z,0
2017-07-18T00:39:59.171Z,0
2017-07-18T00:41:09.592Z,0
2017-07-18T00:42:19.663Z,0
2017-07-18T00:43:30.031Z,0
2017-07-18T00:44:40.458Z,0
2017-07-18T00:45:50.566Z,0
2017-07-18T00:47:00.921Z,0
2017-07-18T00:48:11.287Z,0
2017-07-18T00:49:21.329Z,0
2017-07-18T00:50:31.705Z,0
2017-07-18T00:51:42.064Z,0
2017-07-18T00:52:52.461Z,0
2017-07-18T00:54:02.503Z,0
2017-07-18T00:55:12.854Z,0
2017-07-18T00:56:22.897Z,0
2017-07-18T00:57:32.981Z,0
2017-07-18T00:58:43.408Z,0
2017-07-18T00:59:53.752Z,0
2017-07-18T01:01:04.115Z,0
2017-07-18T01:02:14.152Z,0
2017-07-18T01:03:24.509Z,0
2017-07-18T01:04:34.920Z,0
2017-07-18T01:05:44.970Z,0
2017-07-18T01:06:55.322Z,0
2017-07-18T01:08:05.056Z,0
2017-07-18T01:09:15.400Z,0
2017-07-18T01:10:25.762Z,0
2017-07-18T01:11:36.118Z,0
2017-07-18T01:12:46.176Z,0
2017-07-18T01:13:56.517Z,0
2017-07-18T01:15:06.865Z,0
2017-07-18T01:16:16.898Z,0
2017-07-18T01:17:27.244Z,0
2017-07-18T01:18:37.594Z,0
2017-07-18T01:19:47.948Z,0
2017-07-18T01:20:57.993Z,0
2017-07-18T01:22:08.356Z,0
2017-07-18T01:23:18.406Z,0
2017-07-18T01:24:28.471Z,0
2017-07-18T01:25:38.820Z,0
2017-07-18T01:26:48.542Z,0
2017-07-18T01:27:58.940Z,0
2017-07-18T01:29:09.281Z,0
2017-07-18T01:30:19.648Z,0
2017-07-18T01:31:29.682Z,0
2017-07-18T01:32:40.036Z,0
2017-07-18T01:33:50.397Z,0
2017-07-18T01:35:00.749Z,0
2017-07-18T01:36:11.101Z,0
2017-07-18T01:37:21.448Z,0
2017-07-18T01:38:31.806Z,0
2017-07-18T01:39:41.892Z,0
2017-07-18T01:40:52.260Z,0
2017-07-18T01:42:02.617Z,0
2017-07-18T01:43:12.967Z,0
2017-07-18T01:44:23.318Z,0
2017-07-18T01:45:33.709Z,0
2017-07-18T01:46:43.763Z,0
2017-07-18T01:47:54.128Z,0
2017-07-18T01:49:04.466Z,0
2017-07-18T01:50:14.837Z,0
2017-07-18T01:51:25.232Z,0
2017-07-18T01:52:35.578Z,0
2017-07-18T01:53:45.928Z,0
2017-07-18T01:54:55.951Z,0
2017-07-18T01:56:06.302Z,0
2017-07-18T01:57:16.710Z,0
2017-07-18T01:58:27.060Z,0
2017-07-18T01:59:37.400Z,0
2017-07-18T02:00:47.770Z,0
2017-07-18T02:01:58.120Z,0
2017-07-18T02:03:08.217Z,0
2017-07-18T02:04:18.562Z,0
2017-07-18T02:05:28.603Z,0
2017-07-18T02:06:38.954Z,0
2017-07-18T02:07:48.985Z,0
2017-07-18T02:08:59.340Z,0
2017-07-18T02:10:09.392Z,0
2017-07-18T02:11:19.738Z,0
2017-07-18T02:12:30.107Z,0
2017-07-18T02:13:40.489Z,0
2017-07-18T02:14:50.593Z,0
2017-07-18T02:16:00.953Z,0
2017-07-18T02:17:11.304Z,0
2017-07-18T02:18:21.679Z,0
2017-07-18T02:19:32.053Z,0
2017-07-18T02:20:42.112Z,0
2017-07-18T02:21:52.472Z,0
2017-07-18T02:23:02.821Z,0
2017-07-18T02:24:13.164Z,0
2017-07-18T02:25:23.207Z,0
2017-07-18T02:26:33.603Z,0
2017-07-18T02:27:43.641Z,0
2017-07-18T02:28:53.941Z,0
2017-07-18T02:30:03.919Z,0
2017-07-18T02:31:13.903Z,0
2017-07-18T02:32:23.876Z,0
2017-07-18T02:33:34.188Z,0
2017-07-18T02:34:44.495Z,4
2017-07-18T02:35:54.774Z,4
2017-07-18T02:37:05.073Z,0
2017-07-18T02:38:15.599Z,0
2017-07-18T02:39:25.873Z,4
2017-07-18T02:40:36.160Z,4
2017-07-18T02:41:46.147Z,4
2017-07-18T02:42:56.444Z,4
2017-07-18T02:44:06.780Z,4
2017-07-18T02:45:16.770Z,8
2017-07-18T02:46:27.055Z,8
2017-07-18T02:47:37.056Z,8
2017-07-18T02:48:47.058Z,8
2017-07-18T02:49:57.404Z,12
2017-07-18T02:51:07.388Z,16
2017-07-18T02:52:17.697Z,16
2017-07-18T02:53:27.673Z,20
2017-07-18T02:54:37.972Z,20
2017-07-18T02:55:48.253Z,24
2017-07-18T02:56:58.528Z,28
2017-07-18T02:58:08.835Z,32
2017-07-18T02:59:19.130Z,36
2017-07-18T03:00:29.428Z,40
2017-07-18T03:01:39.714Z,48
2017-07-18T03:32:55.742Z,544
2017-07-18T03:34:06.043Z,580
2017-07-18T03:35:16.318Z,612
2017-07-18T03:36:26.602Z,652
2017-07-18T03:37:36.884Z,692
2017-07-18T03:38:47.234Z,740
2017-07-18T03:39:56.898Z,796
2017-07-18T03:41:07.191Z,860
2017-07-18T03:42:17.475Z,924
2017-07-18T03:43:27.771Z,992
2017-07-18T03:44:37.816Z,1056
2017-07-18T03:45:47.793Z,1116
2017-07-18T03:46:57.770Z,1172
2017-07-18T03:48:07.774Z,1228
2017-07-18T03:49:17.770Z,1284
2017-07-18T03:50:28.096Z,1336
2017-07-18T03:51:38.387Z,1388
2017-07-18T03:52:48.388Z,1436
2017-07-18T03:53:58.713Z,1484
2017-07-18T03:55:09.012Z,1536
2017-07-18T03:56:19.298Z,1592
2017-07-18T03:57:29.611Z,1656
2017-07-18T03:58:39.593Z,1720
2017-07-18T03:59:49.895Z,1776
2017-07-18T04:00:59.900Z,1828
2017-07-18T04:02:09.895Z,1872
2017-07-18T04:03:19.559Z,1904
2017-07-18T04:04:29.842Z,1936
2017-07-18T04:05:39.832Z,1980
2017-07-18T04:06:50.155Z,2028
2017-07-18T04:08:00.490Z,2076
2017-07-18T04:09:10.493Z,2128
2017-07-18T04:10:20.790Z,2180
2017-07-18T04:11:31.087Z,2240
2017-07-18T04:12:41.068Z,2288
2017-07-18T04:13:51.406Z,2320
2017-07-18T04:15:01.701Z,2356
2017-07-18T04:16:11.694Z,2388
2017-07-18T04:17:21.995Z,2428
2017-07-18T04:18:32.326Z,2464
2017-07-18T04:19:42.624Z,2492
2017-07-18T04:20:52.952Z,2520
2017-07-18T04:22:03.239Z,2544
2017-07-18T04:23:13.538Z,2580
2017-07-18T04:24:23.532Z,2620
2017-07-18T04:25:33.846Z,2664
2017-07-18T04:26:43.845Z,2708
2017-07-18T04:27:54.128Z,5108
2017-07-18T04:29:04.422Z,10200
2017-07-18T04:30:14.711Z,11392
2017-07-18T04:31:24.991Z,11712
2017-07-18T04:32:35.283Z,11960
2017-07-18T04:33:45.585Z,11628
2017-07-18T04:34:55.555Z,11656
2017-07-18T04:36:05.552Z,11868
2017-07-18T04:37:15.857Z,11796
2017-07-18T04:38:26.130Z,12044
2017-07-18T04:39:36.423Z,12212
2017-07-18T04:40:46.728Z,12736
2017-07-18T04:41:57.011Z,12512
2017-07-18T04:43:07.055Z,12704
2017-07-18T04:44:17.043Z,12864
2017-07-18T04:45:27.360Z,12544
2017-07-18T04:46:37.652Z,12592
2017-07-18T04:47:47.933Z,12476
2017-07-18T04:48:58.284Z,12460
2017-07-18T04:50:08.620Z,12752
2017-07-18T04:51:18.913Z,13280
2017-07-18T04:52:29.200Z,13600
2017-07-18T04:53:39.486Z,13664
2017-07-18T04:54:49.768Z,13600
2017-07-18T04:56:00.065Z,13236
2017-07-18T04:57:10.040Z,13376
2017-07-18T04:58:20.382Z,13728
2017-07-18T04:59:30.067Z,13760
2017-07-18T05:00:40.066Z,13664
2017-07-18T05:01:50.363Z,13468
2017-07-18T05:03:00.659Z,13288
2017-07-18T05:04:10.662Z,13248
2017-07-18T05:05:20.959Z,13416
2017-07-18T05:06:31.320Z,13428
2017-07-18T05:07:41.001Z,13192
2017-07-18T05:08:51.000Z,13032
2017-07-18T05:10:00.994Z,13080
2017-07-18T05:11:10.978Z,13024
2017-07-18T05:12:21.347Z,13000
2017-07-18T05:13:31.652Z,12928
2017-07-18T05:14:41.979Z,12940
2017-07-18T05:15:52.334Z,12900
2017-07-18T05:17:02.646Z,12876
2017-07-18T05:18:13.244Z,12900
2017-07-18T05:19:23.529Z,12936
2017-07-18T05:20:33.849Z,12848
2017-07-18T05:21:44.159Z,12864
2017-07-18T05:22:54.448Z,12956
2017-07-18T05:24:04.747Z,12828
2017-07-18T05:25:14.752Z,12900
2017-07-18T05:26:25.032Z,13328
2017-07-18T05:27:35.033Z,13268
2017-07-18T05:28:45.346Z,13088
2017-07-18T05:29:55.359Z,13252
2017-07-18T05:31:05.654Z,13340
2017-07-18T05:32:15.968Z,13232
2017-07-18T05:33:26.254Z,13412
2017-07-18T05:34:35.933Z,13340
2017-07-18T05:35:45.599Z,13148
2017-07-18T05:36:55.290Z,13416
2017-07-18T05:38:04.969Z,13640
2017-07-18T05:39:15.295Z,13500
2017-07-18T05:40:25.584Z,13340
2017-07-18T05:41:35.945Z,13324
2017-07-18T05:42:45.919Z,13340
2017-07-18T05:43:56.215Z,13432
2017-07-18T05:45:05.890Z,13348
2017-07-18T05:46:16.240Z,13552
2017-07-18T05:47:26.530Z,13472
2017-07-18T05:48:36.841Z,12992
2017-07-18T05:49:47.127Z,12768
2017-07-18T05:50:57.423Z,12912
2017-07-18T05:52:07.733Z,13200
2017-07-18T05:53:18.195Z,13240
2017-07-18T05:54:28.269Z,13256
2017-07-18T05:55:38.258Z,13220
2017-07-18T05:56:48.237Z,12984
2017-07-18T05:57:58.233Z,12924
2017-07-18T05:59:08.523Z,12912
2017-07-18T06:00:18.830Z,12844
2017-07-18T06:01:28.833Z,12808
2017-07-18T06:02:39.134Z,12608
2017-07-18T06:03:49.440Z,12752
2017-07-18T06:04:59.745Z,12908
2017-07-18T06:06:10.055Z,12880
2017-07-18T06:07:20.361Z,12852
2017-07-18T06:08:30.666Z,12720
2017-07-18T06:09:40.673Z,12644
2017-07-18T06:10:50.962Z,12500
2017-07-18T06:12:01.277Z,12412
2017-07-18T06:13:11.276Z,12432
2017-07-18T06:14:21.598Z,12392
2017-07-18T06:15:31.904Z,12436
2017-07-18T06:16:42.203Z,12328
2017-07-18T06:17:52.196Z,12224
2017-07-18T06:19:02.503Z,12072
2017-07-18T06:20:12.533Z,11308
2017-07-18T06:21:22.543Z,8124
2017-07-18T06:22:32.530Z,5108
2017-07-18T06:23:42.817Z,4636
2017-07-18T06:24:53.118Z,4960
2017-07-18T06:26:03.426Z,5124
2017-07-18T06:27:13.733Z,5572
2017-07-18T06:28:23.784Z,5620
2017-07-18T06:29:33.816Z,5108
2017-07-18T06:30:44.109Z,5156
2017-07-18T06:31:54.091Z,5564
2017-07-18T06:33:04.410Z,7392
2017-07-18T06:34:14.398Z,9372
2017-07-18T06:35:24.704Z,9988
2017-07-18T06:36:34.674Z,10004
2017-07-18T06:37:44.957Z,9928
2017-07-18T06:38:54.934Z,9940
2017-07-18T06:40:05.296Z,9788
2017-07-18T06:41:15.621Z,9688
2017-07-18T06:42:25.903Z,9564
2017-07-18T06:43:36.206Z,9452
2017-07-18T06:44:46.504Z,9292
2017-07-18T06:45:56.499Z,9132
2017-07-18T06:47:06.494Z,8960
2017-07-18T06:48:16.506Z,8824
2017-07-18T06:49:26.809Z,8656
2017-07-18T06:50:37.137Z,8496
2017-07-18T06:51:47.486Z,8356
2017-07-18T06:52:57.487Z,8200
2017-07-18T06:54:07.776Z,8056
2017-07-18T06:55:18.086Z,7892
2017-07-18T06:56:28.393Z,7752
2017-07-18T06:57:38.722Z,7596
2017-07-18T06:58:49.014Z,7460
2017-07-18T06:59:59.317Z,7308
2017-07-18T07:01:09.629Z,7152
2017-07-18T07:02:19.929Z,7000
2017-07-18T07:03:30.229Z,6852
2017-07-18T07:04:40.523Z,6704
2017-07-18T07:05:50.502Z,6560
2017-07-18T07:07:00.800Z,6436
2017-07-18T07:08:11.093Z,6316
2017-07-18T07:09:21.392Z,6164
2017-07-18T07:10:31.700Z,5924
2017-07-18T07:11:42.015Z,5356
2017-07-18T07:12:52.298Z,4884
2017-07-18T07:14:02.606Z,4800
2017-07-18T07:15:12.961Z,4776
2017-07-18T07:16:22.343Z,4772
2017-07-18T07:17:32.334Z,4784
2017-07-18T07:18:42.612Z,4796
2017-07-18T07:19:52.606Z,4812
2017-07-18T07:21:02.935Z,4812
2017-07-18T07:22:13.252Z,4832
2017-07-18T07:23:23.273Z,4848
2017-07-18T07:24:33.574Z,4860
2017-07-18T07:25:43.870Z,4872
2017-07-18T07:26:54.182Z,4888
2017-07-18T07:28:04.489Z,4896
2017-07-18T07:29:14.468Z,4924
2017-07-18T07:30:24.761Z,4940
2017-07-18T07:31:35.072Z,4956
2017-07-18T07:32:45.368Z,4972
2017-07-18T07:33:55.652Z,4984
2017-07-18T07:35:05.957Z,4996
2017-07-18T07:36:15.645Z,5004
2017-07-18T07:37:25.973Z,5020
2017-07-18T07:38:36.337Z,5028
2017-07-18T07:39:46.318Z,5032
2017-07-18T07:40:56.605Z,5044
2017-07-18T07:42:06.905Z,5068
2017-07-18T07:43:16.899Z,5076
2017-07-18T07:44:26.944Z,5092
2017-07-18T07:45:37.236Z,5096
2017-07-18T07:46:47.548Z,5112
2017-07-18T07:47:57.826Z,5128
2017-07-18T07:49:08.118Z,5140
2017-07-18T07:50:18.420Z,5164
2017-07-18T07:51:28.714Z,5180
2017-07-18T07:52:38.994Z,5196
2017-07-18T07:53:49.282Z,5204
2017-07-18T07:54:59.580Z,5216
2017-07-18T07:56:09.903Z,5220
2017-07-18T07:57:20.193Z,5216
2017-07-18T07:58:30.177Z,5240
2017-07-18T07:59:40.177Z,5260
2017-07-18T08:00:50.457Z,5276
2017-07-18T08:02:00.796Z,5292
2017-07-18T08:03:11.088Z,5320
2017-07-18T08:04:21.406Z,5328
2017-07-18T08:05:31.708Z,5332
2017-07-18T08:06:41.979Z,5340
2017-07-18T08:07:52.009Z,5352
2017-07-18T08:09:02.003Z,5352
2017-07-18T08:10:12.316Z,5364
2017-07-18T08:11:22.308Z,5368
2017-07-18T08:12:32.621Z,5376
2017-07-18T08:13:42.913Z,5388
2017-07-18T08:14:53.201Z,5400
2017-07-18T08:16:03.489Z,5412
2017-07-18T08:17:13.788Z,5416
2017-07-18T08:18:23.769Z,5420
2017-07-18T08:19:34.199Z,5240
2017-07-18T08:20:44.494Z,5260
2017-07-18T08:21:54.488Z,5456
2017-07-18T08:23:04.495Z,5468
2017-07-18T08:24:14.802Z,5472
2017-07-18T08:25:25.093Z,5480
2017-07-18T08:26:35.383Z,5492
2017-07-18T08:27:45.676Z,5504
2017-07-18T08:28:55.963Z,5516
2017-07-18T08:30:06.248Z,5532
2017-07-18T08:31:19.027Z,5536
2017-07-18T08:32:30.518Z,5544
2017-07-18T08:33:40.479Z,5556
2017-07-18T08:34:50.485Z,5560
2017-07-18T08:36:00.786Z,5576
2017-07-18T08:37:11.318Z,5588
2017-07-18T08:38:21.628Z,5596
2017-07-18T08:39:31.908Z,5616
2017-07-18T08:40:42.196Z,5624
2017-07-18T08:41:52.540Z,5640
2017-07-18T08:43:02.825Z,5656
2017-07-18T08:44:12.806Z,5664
2017-07-18T08:45:23.098Z,5680
2017-07-18T08:46:33.384Z,5700
2017-07-18T08:47:43.688Z,5708
2017-07-18T08:48:53.980Z,5716
2017-07-18T08:50:04.278Z,5732
2017-07-18T08:51:14.266Z,5748
2017-07-18T08:52:24.556Z,5768
2017-07-18T08:53:34.599Z,5780
2017-07-18T08:54:44.271Z,5780
2017-07-18T08:55:54.257Z,5776
2017-07-18T08:57:04.562Z,5792
2017-07-18T08:58:14.866Z,5804
2017-07-18T08:59:25.201Z,5812
2017-07-18T09:00:35.509Z,5836
2017-07-18T09:01:45.491Z,5828
2017-07-18T09:02:55.799Z,5844
2017-07-18T09:04:06.103Z,5860
2017-07-18T09:05:16.450Z,5864
2017-07-18T09:06:26.734Z,5896
2017-07-18T09:07:36.725Z,5928
2017-07-18T09:08:47.021Z,5944
2017-07-18T09:09:57.013Z,5960
2017-07-18T09:11:07.361Z,5936
2017-07-18T09:12:17.670Z,5988
2017-07-18T09:13:27.949Z,6000
2017-07-18T09:14:38.230Z,6000
2017-07-18T09:15:48.210Z,6040
2017-07-18T09:16:58.234Z,6064
2017-07-18T09:18:08.540Z,6080
2017-07-18T09:19:17.901Z,6084
2017-07-18T09:20:28.206Z,6096
2017-07-18T09:21:38.181Z,6088
2017-07-18T09:22:48.496Z,6092
2017-07-18T09:23:58.816Z,6116
2017-07-18T09:25:08.806Z,6188
2017-07-18T09:26:19.088Z,6248
2017-07-18T09:27:28.793Z,6296
2017-07-18T09:28:39.100Z,6356
2017-07-18T09:29:49.404Z,6404
2017-07-18T09:30:59.712Z,6484
2017-07-18T09:32:09.986Z,6520
2017-07-18T09:33:19.973Z,6540
2017-07-18T09:34:30.320Z,6572
2017-07-18T09:35:40.306Z,6632
2017-07-18T09:36:50.592Z,6636
2017-07-18T09:38:00.573Z,6532
2017-07-18T09:39:10.854Z,6480
2017-07-18T09:40:21.144Z,6660
2017-07-18T09:41:31.142Z,6520
2017-07-18T09:42:41.134Z,6484
2017-07-18T09:43:51.421Z,5780
2017-07-18T09:45:01.732Z,5944
2017-07-18T09:46:12.061Z,6260
2017-07-18T09:47:22.347Z,6284
2017-07-18T09:48:32.325Z,6224
2017-07-18T09:49:42.599Z,5420
2017-07-18T09:50:52.895Z,6548
2017-07-18T09:52:03.193Z,6324
2017-07-18T09:53:13.583Z,6644
2017-07-18T09:54:23.668Z,6952
2017-07-18T09:55:33.975Z,6740
2017-07-18T09:56:43.983Z,7388
2017-07-18T09:57:54.345Z,7492
2017-07-18T09:59:04.682Z,7556
2017-07-18T10:00:14.982Z,7324
2017-07-18T10:01:25.294Z,7132
2017-07-18T10:02:35.596Z,7484
2017-07-18T10:03:45.884Z,6628
2017-07-18T10:04:56.191Z,7948
2017-07-18T10:06:06.529Z,8068
2017-07-18T10:07:16.535Z,8268
2017-07-18T10:08:26.518Z,8144
2017-07-18T10:09:36.848Z,8272
2017-07-18T10:10:46.540Z,8008
2017-07-18T10:11:56.551Z,8344
2017-07-18T10:13:06.853Z,7288
2017-07-18T10:14:16.852Z,6592
2017-07-18T10:15:27.214Z,6736
2017-07-18T10:16:37.502Z,8132
2017-07-18T10:17:47.504Z,7876
2017-07-18T10:18:57.478Z,7888
2017-07-18T10:20:07.475Z,7776
2017-07-18T10:21:17.233Z,7676
2017-07-18T10:22:27.248Z,7668
2017-07-18T10:23:37.554Z,7648
2017-07-18T10:24:47.864Z,7620
2017-07-18T10:25:58.166Z,7552
2017-07-18T10:27:08.169Z,7456
2017-07-18T10:28:18.467Z,7372
2017-07-18T10:29:28.788Z,7260
2017-07-18T10:30:38.815Z,7160
2017-07-18T10:31:49.127Z,7060
2017-07-18T10:32:59.167Z,6972
2017-07-18T10:34:09.472Z,6948
2017-07-18T10:35:19.456Z,6940
2017-07-18T10:36:29.777Z,6912
2017-07-18T10:37:40.072Z,6908
2017-07-18T10:38:50.365Z,6936
2017-07-18T10:40:00.657Z,6916
2017-07-18T10:41:10.955Z,6940
2017-07-18T10:42:21.260Z,6972
2017-07-18T10:43:31.595Z,6964
2017-07-18T10:44:41.975Z,6984
2017-07-18T10:45:52.287Z,6984
2017-07-18T10:47:02.583Z,6980
2017-07-18T10:48:12.898Z,7044
2017-07-18T10:49:22.903Z,7068
2017-07-18T10:50:33.436Z,7088
2017-07-18T10:51:43.730Z,7144
2017-07-18T10:52:53.799Z,7108
2017-07-18T10:54:03.800Z,7092
2017-07-18T10:55:14.167Z,7092
2017-07-18T10:56:24.468Z,7092
2017-07-18T10:57:34.476Z,7104
2017-07-18T10:58:44.784Z,7116
2017-07-18T10:59:55.096Z,7160
2017-07-18T11:01:05.398Z,7172
2017-07-18T11:02:15.436Z,7196
2017-07-18T11:03:25.437Z,7200
2017-07-18T11:04:35.735Z,7224
2017-07-18T11:05:46.028Z,7200
2017-07-18T11:06:56.010Z,7192
2017-07-18T11:08:06.312Z,7224
2017-07-18T11:09:16.608Z,7240
2017-07-18T11:10:26.290Z,7264
2017-07-18T11:11:36.300Z,7284
2017-07-18T11:12:45.996Z,7304
2017-07-18T11:13:56.346Z,7260
2017-07-18T11:15:06.649Z,7304
2017-07-18T11:16:16.651Z,7360
2017-07-18T11:17:26.949Z,7396
2017-07-18T11:18:37.259Z,7404
2017-07-18T11:19:47.259Z,7420
2017-07-18T11:20:57.566Z,7464
2017-07-18T11:22:07.577Z,7480
2017-07-18T11:23:17.569Z,7548
2017-07-18T11:24:27.568Z,7596
2017-07-18T11:25:37.906Z,7644
2017-07-18T11:26:48.211Z,7708
2017-07-18T11:27:58.520Z,7788
2017-07-18T11:29:08.836Z,7844
2017-07-18T11:30:18.842Z,7744
2017-07-18T11:31:28.837Z,6816
2017-07-18T11:32:39.119Z,6180
2017-07-18T11:33:49.434Z,6300
2017-07-18T11:34:59.728Z,7176
2017-07-18T11:36:09.094Z,7424
2017-07-18T11:37:19.384Z,7876
2017-07-18T11:38:29.708Z,8156
2017-07-18T11:39:40.026Z,7092
2017-07-18T11:40:50.026Z,5376
2017-07-18T11:42:00.328Z,4928
2017-07-18T11:43:10.682Z,4512
2017-07-18T11:44:20.979Z,4548
2017-07-18T11:45:31.296Z,4448
2017-07-18T11:46:41.608Z,4380
2017-07-18T11:47:51.902Z,4356
2017-07-18T11:49:01.895Z,4348
2017-07-18T11:50:12.192Z,4520
2017-07-18T11:51:22.493Z,5076
2017-07-18T11:52:32.798Z,5748
2017-07-18T11:53:42.797Z,4828
2017-07-18T11:54:53.105Z,4684
2017-07-18T11:56:03.079Z,4716
2017-07-18T11:57:13.397Z,4892
2017-07-18T11:58:23.698Z,5328
2017-07-18T11:59:33.992Z,6236
2017-07-18T12:00:44.045Z,5892
2017-07-18T12:01:54.332Z,5760
2017-07-18T12:03:04.339Z,8380
2017-07-18T12:04:14.637Z,9924
2017-07-18T12:05:24.967Z,9704
2017-07-18T12:06:35.322Z,9796
2017-07-18T12:07:45.328Z,9732
2017-07-18T12:08:55.329Z,8260
2017-07-18T12:10:05.641Z,6560
2017-07-18T12:11:15.648Z,9092
2017-07-18T12:12:25.951Z,8972
2017-07-18T12:13:36.270Z,8224
2017-07-18T12:14:46.273Z,8156
2017-07-18T12:15:56.573Z,8664
2017-07-18T12:17:06.888Z,9060
2017-07-18T12:18:17.246Z,9228
2017-07-18T12:19:27.535Z,9188
2017-07-18T12:20:37.850Z,9044
2017-07-18T12:21:48.160Z,8836
2017-07-18T12:22:58.179Z,8628
2017-07-18T12:24:08.193Z,8596
2017-07-18T12:25:18.518Z,8736
2017-07-18T12:26:28.852Z,8380
2017-07-18T12:27:38.863Z,7688
2017-07-18T12:28:49.207Z,4996
2017-07-18T12:29:59.174Z,5916
2017-07-18T12:31:09.481Z,5740
2017-07-18T12:32:19.813Z,7040
2017-07-18T12:33:29.824Z,9780
2017-07-18T12:34:39.829Z,9852
2017-07-18T12:35:50.162Z,9788
2017-07-18T12:37:00.443Z,9844
2017-07-18T12:38:11.011Z,9760
2017-07-18T12:39:21.371Z,9652
2017-07-18T12:40:31.674Z,8652
2017-07-18T12:41:42.031Z,8012
2017-07-18T12:42:52.328Z,7824
2017-07-18T12:44:02.667Z,6652
2017-07-18T12:45:12.676Z,8364
2017-07-18T12:46:22.972Z,8368
2017-07-18T12:47:33.332Z,8392
2017-07-18T12:48:43.623Z,9612
2017-07-18T12:49:53.601Z,10160
2017-07-18T12:51:03.897Z,10124
2017-07-18T12:52:14.214Z,9860
2017-07-18T12:53:24.552Z,9552
2017-07-18T12:54:34.873Z,9440
2017-07-18T12:55:44.560Z,9260
2017-07-18T12:56:54.872Z,8764
2017-07-18T12:58:05.162Z,8836
2017-07-18T12:59:15.532Z,7472
2017-07-18T13:00:25.828Z,5312
2017-07-18T13:01:35.529Z,5344
2017-07-18T13:02:45.863Z,4868
2017-07-18T13:03:55.848Z,4748
2017-07-18T13:05:05.928Z,4588
2017-07-18T13:06:16.238Z,4492
2017-07-18T13:07:26.551Z,4292
2017-07-18T13:08:36.851Z,5976
2017-07-18T13:09:47.161Z,7948
2017-07-18T13:10:57.525Z,7860
2017-07-18T13:12:07.840Z,7848
2017-07-18T13:13:18.161Z,7904
2017-07-18T13:14:28.468Z,7880
2017-07-18T13:15:38.154Z,7760
2017-07-18T13:16:48.655Z,7684
2017-07-18T13:17:58.979Z,7200
2017-07-18T13:19:08.974Z,7400
2017-07-18T13:20:19.278Z,4080
2017-07-18T13:21:29.303Z,7416
2017-07-18T13:22:39.619Z,7280
2017-07-18T13:23:49.937Z,7252
2017-07-18T13:25:00.250Z,7284
2017-07-18T13:26:10.578Z,7304
2017-07-18T13:27:20.589Z,7340
2017-07-18T13:28:30.902Z,7356
2017-07-18T13:29:41.210Z,7360
2017-07-18T13:30:51.232Z,7356
2017-07-18T13:32:01.539Z,7276
2017-07-18T13:33:11.838Z,3804
2017-07-18T13:34:22.341Z,3620
2017-07-18T13:35:32.662Z,3372
2017-07-18T13:36:42.966Z,3588
2017-07-18T13:37:53.255Z,5852
2017-07-18T13:39:03.560Z,7136
2017-07-18T13:40:13.569Z,7188
2017-07-18T13:41:23.534Z,7196
2017-07-18T13:42:33.532Z,7156
2017-07-18T13:43:43.853Z,7072
2017-07-18T13:44:54.161Z,7016
2017-07-18T13:46:04.569Z,7028
2017-07-18T13:47:14.898Z,7004
2017-07-18T13:48:25.194Z,7016
2017-07-18T13:49:35.517Z,7088
2017-07-18T13:50:45.817Z,7208
2017-07-18T13:51:55.821Z,7312
2017-07-18T13:53:05.848Z,7280
2017-07-18T13:54:16.160Z,7316
2017-07-18T13:55:26.153Z,7252
2017-07-18T13:56:36.158Z,7244
2017-07-18T13:57:46.152Z,7256
2017-07-18T13:58:56.462Z,7208
2017-07-18T14:00:06.772Z,7088
2017-07-18T14:01:16.766Z,7028
2017-07-18T14:02:27.071Z,6988
2017-07-18T14:03:37.381Z,6980
2017-07-18T14:04:47.690Z,6964
2017-07-18T14:05:58.001Z,6964
2017-07-18T14:07:08.296Z,6900
2017-07-18T14:08:18.601Z,6792
2017-07-18T14:09:28.926Z,6724
2017-07-18T14:10:38.922Z,6784
2017-07-18T14:11:49.239Z,6752
2017-07-18T14:12:59.555Z,6700
2017-07-18T14:14:09.867Z,6668
2017-07-18T14:15:19.915Z,6684
2017-07-18T14:16:30.209Z,6696
2017-07-18T14:17:40.508Z,6652
2017-07-18T14:18:50.812Z,6564
2017-07-18T14:20:01.122Z,6516
2017-07-18T14:21:11.461Z,6452
2017-07-18T14:22:21.775Z,6464
2017-07-18T14:23:32.123Z,6424
2017-07-18T14:24:42.127Z,6340
2017-07-18T14:25:52.429Z,4880
2017-07-18T14:27:02.815Z,5532
2017-07-18T14:28:13.118Z,5936
2017-07-18T14:29:23.398Z,6224
2017-07-18T14:30:33.414Z,6176
2017-07-18T14:31:43.393Z,6224
2017-07-18T14:32:53.694Z,6248
2017-07-18T14:34:04.013Z,6260
2017-07-18T14:35:14.390Z,6256
2017-07-18T14:36:24.388Z,6236
2017-07-18T14:37:34.379Z,6248
2017-07-18T14:38:44.679Z,6272
2017-07-18T14:39:54.987Z,6240
2017-07-18T14:41:04.737Z,6124
2017-07-18T14:42:14.801Z,6008
2017-07-18T14:43:24.861Z,5920
2017-07-18T14:44:35.284Z,5832
2017-07-18T14:45:45.343Z,5760
2017-07-18T14:46:55.421Z,5752
2017-07-18T14:48:05.500Z,5724
2017-07-18T14:49:15.938Z,5688
2017-07-18T14:50:26.301Z,5624
2017-07-18T14:51:36.360Z,5632
2017-07-18T14:52:46.420Z,5636
2017-07-18T14:53:56.806Z,5628
2017-07-18T14:55:06.870Z,5628
2017-07-18T14:56:17.290Z,5604
2017-07-18T14:57:27.646Z,5552
2017-07-18T14:58:38.027Z,5520
2017-07-18T14:59:48.417Z,5464
2017-07-18T15:00:58.783Z,5452
2017-07-18T15:02:09.193Z,5440
2017-07-18T15:03:19.282Z,5436
2017-07-18T15:04:29.659Z,5412
2017-07-18T15:05:40.016Z,5416
2017-07-18T15:06:49.741Z,5392
2017-07-18T15:07:59.814Z,5344
2017-07-18T15:09:10.187Z,5304
2017-07-18T15:10:20.241Z,5260
2017-07-18T15:11:30.311Z,5228
2017-07-18T15:12:40.690Z,5240
2017-07-18T15:13:51.073Z,5232
2017-07-18T15:15:01.435Z,5220
2017-07-18T15:16:11.815Z,5180
2017-07-18T15:17:22.181Z,5136
2017-07-18T15:18:32.551Z,5112
2017-07-18T15:19:42.617Z,5076
2017-07-18T15:20:52.972Z,5048
2017-07-18T15:22:03.343Z,5008
2017-07-18T15:23:13.938Z,4968
2017-07-18T15:24:24.316Z,4976
2017-07-18T15:25:34.430Z,4972
2017-07-18T15:26:44.502Z,4956
2017-07-18T15:27:54.866Z,4924
2017-07-18T15:29:05.248Z,4908
2017-07-18T15:30:15.610Z,4884
2017-07-18T15:31:25.984Z,4864
2017-07-18T15:32:36.384Z,4864
2017-07-18T15:33:46.760Z,4828
2017-07-18T15:34:57.139Z,4824
2017-07-18T15:36:07.509Z,4816
2017-07-18T15:37:17.931Z,4780
2017-07-18T15:38:28.310Z,4760
2017-07-18T15:39:38.704Z,4732
2017-07-18T15:40:49.086Z,4716
2017-07-18T15:41:59.441Z,4680
2017-07-18T15:43:09.495Z,4676
2017-07-18T15:44:19.853Z,4628
2017-07-18T15:45:30.226Z,4604
2017-07-18T15:46:40.601Z,4596
2017-07-18T15:47:50.988Z,4572
2017-07-18T15:49:01.407Z,4540
2017-07-18T15:50:11.129Z,4528
2017-07-18T15:51:21.193Z,4512
2017-07-18T15:52:31.609Z,4504
2017-07-18T15:53:41.981Z,4488
2017-07-18T15:54:52.343Z,4476
2017-07-18T15:56:02.734Z,4448
2017-07-18T15:57:13.111Z,4420
2017-07-18T15:58:23.479Z,4384
2017-07-18T15:59:33.858Z,4360
2017-07-18T16:00:44.284Z,4340
2017-07-18T16:01:54.048Z,4304
2017-07-18T16:03:04.099Z,4272
2017-07-18T16:04:13.836Z,4252
2017-07-18T16:05:24.206Z,4216
2017-07-18T16:06:34.332Z,4192
2017-07-18T16:07:44.707Z,4168
2017-07-18T16:08:54.453Z,4144
2017-07-18T16:10:04.835Z,4128
2017-07-18T16:11:14.921Z,4124
2017-07-18T16:12:25.353Z,4100
2017-07-18T16:13:35.731Z,4088
2017-07-18T16:14:46.118Z,4072
2017-07-18T16:15:56.181Z,4036
2017-07-18T16:17:06.251Z,3996
2017-07-18T16:18:16.350Z,3976